Terminal Aerodrome Forecast
Issued by NWS

Home | Current Version | Previous Version | Text Only | Print | Product List | Glossary On
Versions: 1 2 3 4 5 6 7 8 9 10 11 12 13
000
FTUS45 KABQ 252342 RRA
TAFTCC
TAF
KTCC 252342Z 2600/2624 26018G25KT P6SM VCSH SCT080 BKN130
     FM260300 26010KT P6SM BKN120
     FM260600 30008KT P6SM SCT120
     FM261900 20010G16KT P6SM FEW060=

USA.gov is the U.S. government's official web portal to all federal, state and local government web resources and services.